sensor_id;sensor_type;location;lat;lon;timestamp;temperature;humidity
28608;DHT22;15802;45.654;13.804;2023-01-28T00:00:52;3.60;99.90
28608;DHT22;15802;45.654;13.804;2023-01-28T00:03:18;3.60;99.90
28608;DHT22;15802;45.654;13.804;2023-01-28T00:05:44;3.50;99.90
28608;DHT22;15802;45.654;13.804;2023-01-28T00:08:10;3.50;99.90
28608;DHT22;15802;45.654;13.804;2023-01-28T00:10:40;3.50;99.90
28608;DHT22;15802;45.654;13.804;2023-01-28T00:13:08;3.60;99.90
28608;DHT22;15802;45.654;13.804;2023-01-28T00:15:34;3.60;99.90
28608;DHT22;15802;45.654;13.804;2023-01-28T00:18:03;3.70;99.90
28608;DHT22;15802;45.654;13.804;2023-01-28T00:20:29;3.50;99.90
28608;DHT22;15802;45.654;13.804;2023-01-28T00:22:57;3.50;99.90
28608;DHT22;15802;45.654;13.804;2023-01-28T00:25:23;3.50;99.90
28608;DHT22;15802;45.654;13.804;2023-01-28T00:27:49;3.60;99.90
28608;DHT22;15802;45.654;13.804;2023-01-28T00:30:15;3.60;99.90
28608;DHT22;15802;45.654;13.804;2023-01-28T00:32:41;3.50;99.90
28608;DHT22;15802;45.654;13.804;2023-01-28T00:35:07;3.50;99.90
28608;DHT22;15802;45.654;13.804;2023-01-28T00:37:33;3.50;99.90
28608;DHT22;15802;45.654;13.804;2023-01-28T00:40:01;3.50;99.90
28608;DHT22;15802;45.654;13.804;2023-01-28T00:42:27;3.40;99.90
28608;DHT22;15802;45.654;13.804;2023-01-28T00:44:53;3.40;99.90
28608;DHT22;15802;45.654;13.804;2023-01-28T00:47:19;3.40;99.90
28608;DHT22;15802;45.654;13.804;2023-01-28T00:49:45;3.40;99.90
28608;DHT22;15802;45.654;13.804;2023-01-28T00:52:12;3.40;99.90
28608;DHT22;15802;45.654;13.804;2023-01-28T00:54:38;3.30;99.90
28608;DHT22;15802;45.654;13.804;2023-01-28T00:57:04;3.20;99.90
28608;DHT22;15802;45.654;13.804;2023-01-28T00:59:29;3.20;99.90
28608;DHT22;15802;45.654;13.804;2023-01-28T01:01:55;3.20;99.90
28608;DHT22;15802;45.654;13.804;2023-01-28T01:04:36;3.30;99.90
28608;DHT22;15802;45.654;13.804;2023-01-28T01:07:02;3.30;99.90
28608;DHT22;15802;45.654;13.804;2023-01-28T01:09:28;3.30;99.90
28608;DHT22;15802;45.654;13.804;2023-01-28T01:11:54;3.30;99.90
28608;DHT22;15802;45.654;13.804;2023-01-28T01:14:20;3.30;99.90
28608;DHT22;15802;45.654;13.804;2023-01-28T01:16:45;3.20;99.90
28608;DHT22;15802;45.654;13.804;2023-01-28T01:19:12;3.20;99.90
28608;DHT22;15802;45.654;13.804;2023-01-28T01:21:40;3.20;99.90
28608;DHT22;15802;45.654;13.804;2023-01-28T01:24:06;3.20;99.90
28608;DHT22;15802;45.654;13.804;2023-01-28T01:26:32;3.20;99.90
28608;DHT22;15802;45.654;13.804;2023-01-28T01:28:58;3.20;99.90
28608;DHT22;15802;45.654;13.804;2023-01-28T01:31:24;3.20;99.90
28608;DHT22;15802;45.654;13.804;2023-01-28T01:33:50;3.10;99.90
28608;DHT22;15802;45.654;13.804;2023-01-28T01:36:18;3.10;99.90
28608;DHT22;15802;45.654;13.804;2023-01-28T01:38:46;3.10;99.90
28608;DHT22;15802;45.654;13.804;2023-01-28T01:41:25;3.00;99.90
28608;DHT22;15802;45.654;13.804;2023-01-28T01:43:55;3.10;99.90
28608;DHT22;15802;45.654;13.804;2023-01-28T01:46:31;3.00;99.90
28608;DHT22;15802;45.654;13.804;2023-01-28T01:49:12;3.00;99.90
28608;DHT22;15802;45.654;13.804;2023-01-28T01:51:41;3.00;99.90
28608;DHT22;15802;45.654;13.804;2023-01-28T01:54:08;3.10;99.90
28608;DHT22;15802;45.654;13.804;2023-01-28T01:56:37;3.00;99.90
28608;DHT22;15802;45.654;13.804;2023-01-28T01:59:09;3.00;99.90
28608;DHT22;15802;45.654;13.804;2023-01-28T02:01:35;3.00;99.90
28608;DHT22;15802;45.654;13.804;2023-01-28T02:04:15;3.00;99.90
28608;DHT22;15802;45.654;13.804;2023-01-28T02:06:43;3.00;99.90
28608;DHT22;15802;45.654;13.804;2023-01-28T02:09:28;3.00;99.90
28608;DHT22;15802;45.654;13.804;2023-01-28T02:11:57;3.00;99.90
28608;DHT22;15802;45.654;13.804;2023-01-28T02:14:26;3.00;99.90
28608;DHT22;15802;45.654;13.804;2023-01-28T02:16:53;3.00;99.90
28608;DHT22;15802;45.654;13.804;2023-01-28T02:19:21;3.00;99.90
28608;DHT22;15802;45.654;13.804;2023-01-28T02:25:01;3.00;99.90
28608;DHT22;15802;45.654;13.804;2023-01-28T02:30:52;3.00;99.90
28608;DHT22;15802;45.654;13.804;2023-01-28T02:33:28;3.00;99.90
28608;DHT22;15802;45.654;13.804;2023-01-28T02:35:55;3.00;99.90
28608;DHT22;15802;45.654;13.804;2023-01-28T02:38:27;3.00;99.90
28608;DHT22;15802;45.654;13.804;2023-01-28T02:41:02;3.00;99.90
28608;DHT22;15802;45.654;13.804;2023-01-28T02:43:46;3.00;99.90
28608;DHT22;15802;45.654;13.804;2023-01-28T02:46:33;3.00;99.90
28608;DHT22;15802;45.654;13.804;2023-01-28T02:49:26;3.00;99.90
28608;DHT22;15802;45.654;13.804;2023-01-28T02:52:24;3.10;99.90
28608;DHT22;15802;45.654;13.804;2023-01-28T02:55:44;3.10;99.90
28608;DHT22;15802;45.654;13.804;2023-01-28T02:58:41;3.10;99.90
28608;DHT22;15802;45.654;13.804;2023-01-28T03:04:07;3.10;99.90
28608;DHT22;15802;45.654;13.804;2023-01-28T03:06:38;3.10;99.90
28608;DHT22;15802;45.654;13.804;2023-01-28T03:09:07;3.10;99.90
28608;DHT22;15802;45.654;13.804;2023-01-28T03:12:10;3.10;99.90
28608;DHT22;15802;45.654;13.804;2023-01-28T03:14:59;3.10;99.90
28608;DHT22;15802;45.654;13.804;2023-01-28T03:17:52;3.10;99.90
28608;DHT22;15802;45.654;13.804;2023-01-28T03:20:44;3.10;99.90
28608;DHT22;15802;45.654;13.804;2023-01-28T03:23:39;3.10;99.90
28608;DHT22;15802;45.654;13.804;2023-01-28T03:26:26;3.10;99.90
28608;DHT22;15802;45.654;13.804;2023-01-28T03:29:13;3.10;99.90
28608;DHT22;15802;45.654;13.804;2023-01-28T03:31:58;3.10;99.90
28608;DHT22;15802;45.654;13.804;2023-01-28T03:34:44;3.10;99.90
28608;DHT22;15802;45.654;13.804;2023-01-28T03:37:30;3.10;99.90
28608;DHT22;15802;45.654;13.804;2023-01-28T03:40:01;3.10;99.90
28608;DHT22;15802;45.654;13.804;2023-01-28T03:42:29;3.20;99.90
28608;DHT22;15802;45.654;13.804;2023-01-28T03:44:55;3.20;99.90
28608;DHT22;15802;45.654;13.804;2023-01-28T03:47:24;3.20;99.90
28608;DHT22;15802;45.654;13.804;2023-01-28T03:49:52;3.10;99.90
28608;DHT22;15802;45.654;13.804;2023-01-28T03:52:22;3.20;99.90
28608;DHT22;15802;45.654;13.804;2023-01-28T03:54:48;3.10;99.90
28608;DHT22;15802;45.654;13.804;2023-01-28T03:57:16;3.20;99.90
28608;DHT22;15802;45.654;13.804;2023-01-28T03:59:43;3.20;99.90
28608;DHT22;15802;45.654;13.804;2023-01-28T04:02:10;3.20;99.90
28608;DHT22;15802;45.654;13.804;2023-01-28T04:04:38;3.20;99.90
28608;DHT22;15802;45.654;13.804;2023-01-28T04:07:05;3.20;99.90
28608;DHT22;15802;45.654;13.804;2023-01-28T04:09:34;3.20;99.90
28608;DHT22;15802;45.654;13.804;2023-01-28T04:12:00;3.30;99.90
28608;DHT22;15802;45.654;13.804;2023-01-28T04:14:26;3.30;99.90
28608;DHT22;15802;45.654;13.804;2023-01-28T04:16:52;3.20;99.90
28608;DHT22;15802;45.654;13.804;2023-01-28T04:19:20;3.20;99.90
28608;DHT22;15802;45.654;13.804;2023-01-28T04:21:46;3.30;99.90
28608;DHT22;15802;45.654;13.804;2023-01-28T04:24:12;3.30;99.90
28608;DHT22;15802;45.654;13.804;2023-01-28T04:26:39;3.30;99.90
28608;DHT22;15802;45.654;13.804;2023-01-28T04:29:05;3.30;99.90
28608;DHT22;15802;45.654;13.804;2023-01-28T04:31:31;3.30;99.90
28608;DHT22;15802;45.654;13.804;2023-01-28T04:33:58;3.20;99.90
28608;DHT22;15802;45.654;13.804;2023-01-28T04:36:24;3.30;99.90
28608;DHT22;15802;45.654;13.804;2023-01-28T04:38:51;3.30;99.90
28608;DHT22;15802;45.654;13.804;2023-01-28T04:41:17;3.30;99.90
28608;DHT22;15802;45.654;13.804;2023-01-28T04:43:43;3.40;99.90
28608;DHT22;15802;45.654;13.804;2023-01-28T04:46:12;3.20;99.90
28608;DHT22;15802;45.654;13.804;2023-01-28T04:48:37;3.20;99.90
28608;DHT22;15802;45.654;13.804;2023-01-28T04:51:03;3.20;99.90
28608;DHT22;15802;45.654;13.804;2023-01-28T04:53:30;3.20;99.90
28608;DHT22;15802;45.654;13.804;2023-01-28T04:55:56;3.20;99.90
28608;DHT22;15802;45.654;13.804;2023-01-28T04:58:23;3.20;99.90
28608;DHT22;15802;45.654;13.804;2023-01-28T05:00:57;3.20;99.90
28608;DHT22;15802;45.654;13.804;2023-01-28T05:03:23;3.20;99.90
28608;DHT22;15802;45.654;13.804;2023-01-28T05:05:50;3.30;99.90
28608;DHT22;15802;45.654;13.804;2023-01-28T05:08:16;3.30;99.90
28608;DHT22;15802;45.654;13.804;2023-01-28T05:10:42;3.20;99.90
28608;DHT22;15802;45.654;13.804;2023-01-28T05:13:08;3.20;99.90
28608;DHT22;15802;45.654;13.804;2023-01-28T05:15:34;3.20;99.90
28608;DHT22;15802;45.654;13.804;2023-01-28T05:18:00;3.10;99.90
28608;DHT22;15802;45.654;13.804;2023-01-28T05:20:26;3.10;99.90
28608;DHT22;15802;45.654;13.804;2023-01-28T05:22:52;3.10;99.90
28608;DHT22;15802;45.654;13.804;2023-01-28T05:25:18;3.10;99.90
28608;DHT22;15802;45.654;13.804;2023-01-28T05:27:49;3.10;99.90
28608;DHT22;15802;45.654;13.804;2023-01-28T05:30:16;3.10;99.90
28608;DHT22;15802;45.654;13.804;2023-01-28T05:32:42;3.10;99.90
28608;DHT22;15802;45.654;13.804;2023-01-28T05:35:08;3.10;99.90
28608;DHT22;15802;45.654;13.804;2023-01-28T05:37:34;3.10;99.90
28608;DHT22;15802;45.654;13.804;2023-01-28T05:40:00;3.10;99.90
28608;DHT22;15802;45.654;13.804;2023-01-28T05:42:26;3.10;99.90
28608;DHT22;15802;45.654;13.804;2023-01-28T05:44:52;3.10;99.90
28608;DHT22;15802;45.654;13.804;2023-01-28T05:47:18;3.10;99.90
28608;DHT22;15802;45.654;13.804;2023-01-28T05:49:44;3.20;99.90
28608;DHT22;15802;45.654;13.804;2023-01-28T05:52:11;3.20;99.90
28608;DHT22;15802;45.654;13.804;2023-01-28T05:54:37;3.10;99.90
28608;DHT22;15802;45.654;13.804;2023-01-28T05:57:03;3.10;99.90
28608;DHT22;15802;45.654;13.804;2023-01-28T05:59:29;3.10;99.90
28608;DHT22;15802;45.654;13.804;2023-01-28T06:01:55;3.10;99.90
28608;DHT22;15802;45.654;13.804;2023-01-28T06:04:20;3.00;99.90
28608;DHT22;15802;45.654;13.804;2023-01-28T06:06:46;3.10;99.90
28608;DHT22;15802;45.654;13.804;2023-01-28T06:09:12;3.10;99.90
28608;DHT22;15802;45.654;13.804;2023-01-28T06:11:38;3.10;99.90
28608;DHT22;15802;45.654;13.804;2023-01-28T06:14:04;3.20;99.90
28608;DHT22;15802;45.654;13.804;2023-01-28T06:16:30;3.20;99.90
28608;DHT22;15802;45.654;13.804;2023-01-28T06:18:56;3.20;99.90
28608;DHT22;15802;45.654;13.804;2023-01-28T06:21:22;3.10;99.90
28608;DHT22;15802;45.654;13.804;2023-01-28T06:23:47;3.10;99.90
28608;DHT22;15802;45.654;13.804;2023-01-28T06:26:13;3.10;99.90
28608;DHT22;15802;45.654;13.804;2023-01-28T06:28:39;3.00;99.90
28608;DHT22;15802;45.654;13.804;2023-01-28T06:31:05;3.00;99.90
28608;DHT22;15802;45.654;13.804;2023-01-28T06:33:31;3.00;99.90
28608;DHT22;15802;45.654;13.804;2023-01-28T06:35:57;3.00;99.90
28608;DHT22;15802;45.654;13.804;2023-01-28T06:38:24;3.00;99.90
28608;DHT22;15802;45.654;13.804;2023-01-28T06:40:51;3.10;99.90
28608;DHT22;15802;45.654;13.804;2023-01-28T06:43:17;3.10;99.90
28608;DHT22;15802;45.654;13.804;2023-01-28T06:45:43;3.10;99.90
28608;DHT22;15802;45.654;13.804;2023-01-28T06:48:09;3.10;99.90
28608;DHT22;15802;45.654;13.804;2023-01-28T06:50:35;3.10;99.90
28608;DHT22;15802;45.654;13.804;2023-01-28T06:53:00;3.10;99.90
28608;DHT22;15802;45.654;13.804;2023-01-28T06:55:26;3.20;99.90
28608;DHT22;15802;45.654;13.804;2023-01-28T06:57:52;3.10;99.90
28608;DHT22;15802;45.654;13.804;2023-01-28T07:00:18;3.10;99.90
28608;DHT22;15802;45.654;13.804;2023-01-28T07:02:44;3.10;99.90
28608;DHT22;15802;45.654;13.804;2023-01-28T07:05:10;3.10;99.90
28608;DHT22;15802;45.654;13.804;2023-01-28T07:07:36;3.20;99.90
28608;DHT22;15802;45.654;13.804;2023-01-28T07:10:02;3.00;99.90
28608;DHT22;15802;45.654;13.804;2023-01-28T07:12:28;3.10;99.90
28608;DHT22;15802;45.654;13.804;2023-01-28T07:14:54;3.00;99.90
28608;DHT22;15802;45.654;13.804;2023-01-28T07:17:20;3.10;99.90
28608;DHT22;15802;45.654;13.804;2023-01-28T07:19:46;3.10;99.90
28608;DHT22;15802;45.654;13.804;2023-01-28T07:22:12;3.00;99.90
28608;DHT22;15802;45.654;13.804;2023-01-28T07:24:40;3.10;99.90
28608;DHT22;15802;45.654;13.804;2023-01-28T07:27:06;3.10;99.90
28608;DHT22;15802;45.654;13.804;2023-01-28T07:29:32;3.10;99.90
28608;DHT22;15802;45.654;13.804;2023-01-28T07:32:00;3.20;99.90
28608;DHT22;15802;45.654;13.804;2023-01-28T07:34:26;3.20;99.90
28608;DHT22;15802;45.654;13.804;2023-01-28T07:36:53;3.10;99.90
28608;DHT22;15802;45.654;13.804;2023-01-28T07:39:19;3.20;99.90
28608;DHT22;15802;45.654;13.804;2023-01-28T07:41:45;3.20;99.90
28608;DHT22;15802;45.654;13.804;2023-01-28T07:44:12;3.20;99.90
28608;DHT22;15802;45.654;13.804;2023-01-28T07:46:37;3.30;99.90
28608;DHT22;15802;45.654;13.804;2023-01-28T07:49:03;3.40;99.90
28608;DHT22;15802;45.654;13.804;2023-01-28T07:51:29;3.40;99.90
28608;DHT22;15802;45.654;13.804;2023-01-28T07:53:55;3.50;99.90
28608;DHT22;15802;45.654;13.804;2023-01-28T07:56:21;3.50;99.90
28608;DHT22;15802;45.654;13.804;2023-01-28T07:58:49;3.50;99.90
28608;DHT22;15802;45.654;13.804;2023-01-28T08:01:15;3.50;99.90
28608;DHT22;15802;45.654;13.804;2023-01-28T08:03:42;3.50;99.90
28608;DHT22;15802;45.654;13.804;2023-01-28T08:06:08;3.60;99.90
28608;DHT22;15802;45.654;13.804;2023-01-28T08:08:36;3.60;99.90
28608;DHT22;15802;45.654;13.804;2023-01-28T08:11:09;3.60;99.90
28608;DHT22;15802;45.654;13.804;2023-01-28T08:13:36;3.60;99.90
28608;DHT22;15802;45.654;13.804;2023-01-28T08:16:05;3.70;99.90
28608;DHT22;15802;45.654;13.804;2023-01-28T08:18:31;3.80;99.90
28608;DHT22;15802;45.654;13.804;2023-01-28T08:20:58;3.80;99.90
28608;DHT22;15802;45.654;13.804;2023-01-28T08:23:24;3.80;99.90
28608;DHT22;15802;45.654;13.804;2023-01-28T08:25:52;3.80;99.90
28608;DHT22;15802;45.654;13.804;2023-01-28T08:28:19;3.90;99.90
28608;DHT22;15802;45.654;13.804;2023-01-28T08:30:46;3.90;99.90
28608;DHT22;15802;45.654;13.804;2023-01-28T08:33:13;3.90;99.90
28608;DHT22;15802;45.654;13.804;2023-01-28T08:35:39;4.00;99.90
28608;DHT22;15802;45.654;13.804;2023-01-28T08:38:06;4.00;99.90
28608;DHT22;15802;45.654;13.804;2023-01-28T08:40:36;4.00;99.90
28608;DHT22;15802;45.654;13.804;2023-01-28T08:43:02;4.10;99.90
28608;DHT22;15802;45.654;13.804;2023-01-28T08:45:28;4.20;99.90
28608;DHT22;15802;45.654;13.804;2023-01-28T08:48:02;4.30;99.90
28608;DHT22;15802;45.654;13.804;2023-01-28T08:50:34;4.30;99.90
28608;DHT22;15802;45.654;13.804;2023-01-28T08:53:06;4.40;99.90
28608;DHT22;15802;45.654;13.804;2023-01-28T08:55:36;4.50;99.90
28608;DHT22;15802;45.654;13.804;2023-01-28T08:58:05;4.60;99.90
28608;DHT22;15802;45.654;13.804;2023-01-28T09:00:31;4.60;99.90
28608;DHT22;15802;45.654;13.804;2023-01-28T09:02:57;4.50;99.90
28608;DHT22;15802;45.654;13.804;2023-01-28T09:05:23;4.50;99.90
28608;DHT22;15802;45.654;13.804;2023-01-28T09:07:49;4.60;99.90
28608;DHT22;15802;45.654;13.804;2023-01-28T09:10:16;4.60;99.90
28608;DHT22;15802;45.654;13.804;2023-01-28T09:12:42;4.60;99.90
28608;DHT22;15802;45.654;13.804;2023-01-28T09:15:09;4.60;99.90
28608;DHT22;15802;45.654;13.804;2023-01-28T09:17:35;4.60;99.90
28608;DHT22;15802;45.654;13.804;2023-01-28T09:20:01;4.40;99.90
28608;DHT22;15802;45.654;13.804;2023-01-28T09:22:27;4.30;99.90
28608;DHT22;15802;45.654;13.804;2023-01-28T09:24:52;4.30;99.90
28608;DHT22;15802;45.654;13.804;2023-01-28T09:27:18;4.30;99.90
28608;DHT22;15802;45.654;13.804;2023-01-28T09:29:44;4.30;99.90
28608;DHT22;15802;45.654;13.804;2023-01-28T09:32:10;4.30;99.90
28608;DHT22;15802;45.654;13.804;2023-01-28T09:34:36;4.30;99.90
28608;DHT22;15802;45.654;13.804;2023-01-28T09:37:02;4.30;99.90
28608;DHT22;15802;45.654;13.804;2023-01-28T09:39:28;4.30;99.90
28608;DHT22;15802;45.654;13.804;2023-01-28T09:45:16;4.30;99.90
28608;DHT22;15802;45.654;13.804;2023-01-28T09:47:50;4.40;99.90
28608;DHT22;15802;45.654;13.804;2023-01-28T09:50:30;4.40;99.90
28608;DHT22;15802;45.654;13.804;2023-01-28T09:53:15;4.50;99.90
28608;DHT22;15802;45.654;13.804;2023-01-28T09:55:45;4.60;99.90
28608;DHT22;15802;45.654;13.804;2023-01-28T09:58:14;4.70;99.90
28608;DHT22;15802;45.654;13.804;2023-01-28T10:07:00;4.90;99.90
28608;DHT22;15802;45.654;13.804;2023-01-28T10:09:39;5.00;99.90
28608;DHT22;15802;45.654;13.804;2023-01-28T10:12:31;5.10;99.90
28608;DHT22;15802;45.654;13.804;2023-01-28T10:15:34;5.20;99.90
28608;DHT22;15802;45.654;13.804;2023-01-28T10:18:09;5.30;99.90
28608;DHT22;15802;45.654;13.804;2023-01-28T10:20:45;5.50;99.90
28608;DHT22;15802;45.654;13.804;2023-01-28T10:23:23;5.50;99.90
28608;DHT22;15802;45.654;13.804;2023-01-28T10:25:50;5.50;99.90
28608;DHT22;15802;45.654;13.804;2023-01-28T10:28:20;5.60;99.90
28608;DHT22;15802;45.654;13.804;2023-01-28T10:30:49;5.50;99.90
28608;DHT22;15802;45.654;13.804;2023-01-28T10:33:37;5.40;99.90
28608;DHT22;15802;45.654;13.804;2023-01-28T10:36:08;5.30;99.90
28608;DHT22;15802;45.654;13.804;2023-01-28T10:38:35;5.30;99.90
28608;DHT22;15802;45.654;13.804;2023-01-28T10:41:02;5.30;99.90
28608;DHT22;15802;45.654;13.804;2023-01-28T10:43:32;5.20;99.90
28608;DHT22;15802;45.654;13.804;2023-01-28T10:46:05;5.30;99.90
28608;DHT22;15802;45.654;13.804;2023-01-28T10:48:36;5.40;99.90
28608;DHT22;15802;45.654;13.804;2023-01-28T10:51:06;5.50;99.90
28608;DHT22;15802;45.654;13.804;2023-01-28T10:53:34;5.50;99.90
28608;DHT22;15802;45.654;13.804;2023-01-28T10:56:02;5.40;99.90
28608;DHT22;15802;45.654;13.804;2023-01-28T10:58:32;5.40;99.90
28608;DHT22;15802;45.654;13.804;2023-01-28T11:01:00;5.40;99.90
28608;DHT22;15802;45.654;13.804;2023-01-28T11:03:33;5.40;99.90
28608;DHT22;15802;45.654;13.804;2023-01-28T11:06:01;5.30;99.90
28608;DHT22;15802;45.654;13.804;2023-01-28T11:08:41;5.30;99.90
28608;DHT22;15802;45.654;13.804;2023-01-28T11:11:13;5.20;99.90
28608;DHT22;15802;45.654;13.804;2023-01-28T11:13:48;5.30;99.90
28608;DHT22;15802;45.654;13.804;2023-01-28T11:16:16;5.20;99.90
28608;DHT22;15802;45.654;13.804;2023-01-28T11:18:53;5.40;99.90
28608;DHT22;15802;45.654;13.804;2023-01-28T11:21:24;5.40;99.90
28608;DHT22;15802;45.654;13.804;2023-01-28T11:23:56;5.40;99.90
28608;DHT22;15802;45.654;13.804;2023-01-28T11:26:27;5.40;99.90
28608;DHT22;15802;45.654;13.804;2023-01-28T11:28:54;5.50;99.90
28608;DHT22;15802;45.654;13.804;2023-01-28T11:31:22;5.50;99.90
28608;DHT22;15802;45.654;13.804;2023-01-28T11:33:53;5.50;99.90
28608;DHT22;15802;45.654;13.804;2023-01-28T11:36:27;5.60;99.90
28608;DHT22;15802;45.654;13.804;2023-01-28T11:38:56;5.70;99.90
28608;DHT22;15802;45.654;13.804;2023-01-28T11:41:31;5.70;99.90
28608;DHT22;15802;45.654;13.804;2023-01-28T11:43:59;5.80;99.90
28608;DHT22;15802;45.654;13.804;2023-01-28T11:49:57;5.90;99.90
28608;DHT22;15802;45.654;13.804;2023-01-28T11:52:43;5.90;99.90
28608;DHT22;15802;45.654;13.804;2023-01-28T11:55:53;5.90;99.90
28608;DHT22;15802;45.654;13.804;2023-01-28T11:58:25;5.90;99.90
28608;DHT22;15802;45.654;13.804;2023-01-28T12:01:33;5.90;99.90
28608;DHT22;15802;45.654;13.804;2023-01-28T12:04:18;5.90;99.90
28608;DHT22;15802;45.654;13.804;2023-01-28T12:09:44;6.10;99.90
28608;DHT22;15802;45.654;13.804;2023-01-28T12:15:53;5.90;99.90
28608;DHT22;15802;45.654;13.804;2023-01-28T12:18:51;5.80;99.90
28608;DHT22;15802;45.654;13.804;2023-01-28T12:21:43;5.90;99.90
28608;DHT22;15802;45.654;13.804;2023-01-28T12:24:29;5.90;99.90
28608;DHT22;15802;45.654;13.804;2023-01-28T12:27:22;5.80;99.90
28608;DHT22;15802;45.654;13.804;2023-01-28T12:30:00;5.80;99.90
28608;DHT22;15802;45.654;13.804;2023-01-28T12:32:59;5.80;99.90
28608;DHT22;15802;45.654;13.804;2023-01-28T12:35:44;5.70;99.90
28608;DHT22;15802;45.654;13.804;2023-01-28T12:38:29;5.70;99.90
28608;DHT22;15802;45.654;13.804;2023-01-28T12:41:06;5.80;99.90
28608;DHT22;15802;45.654;13.804;2023-01-28T12:46:46;5.70;99.90
28608;DHT22;15802;45.654;13.804;2023-01-28T12:49:21;5.90;99.90
28608;DHT22;15802;45.654;13.804;2023-01-28T12:54:44;6.00;99.90
28608;DHT22;15802;45.654;13.804;2023-01-28T12:57:25;6.10;99.90
28608;DHT22;15802;45.654;13.804;2023-01-28T13:00:18;6.10;99.90
28608;DHT22;15802;45.654;13.804;2023-01-28T13:02:52;6.20;99.90
28608;DHT22;15802;45.654;13.804;2023-01-28T13:05:24;6.20;99.90
28608;DHT22;15802;45.654;13.804;2023-01-28T13:07:56;6.20;99.90
28608;DHT22;15802;45.654;13.804;2023-01-28T13:10:44;6.10;99.90
28608;DHT22;15802;45.654;13.804;2023-01-28T13:13:17;6.00;99.90
28608;DHT22;15802;45.654;13.804;2023-01-28T13:15:47;5.90;99.90
28608;DHT22;15802;45.654;13.804;2023-01-28T13:18:33;5.90;99.90
28608;DHT22;15802;45.654;13.804;2023-01-28T13:21:29;5.90;99.90
28608;DHT22;15802;45.654;13.804;2023-01-28T13:24:16;5.70;99.90
28608;DHT22;15802;45.654;13.804;2023-01-28T13:26:54;5.70;99.90
28608;DHT22;15802;45.654;13.804;2023-01-28T13:29:29;5.80;99.90
28608;DHT22;15802;45.654;13.804;2023-01-28T13:31:57;5.80;99.90
28608;DHT22;15802;45.654;13.804;2023-01-28T13:34:28;5.90;99.90
28608;DHT22;15802;45.654;13.804;2023-01-28T13:37:00;6.00;99.90
28608;DHT22;15802;45.654;13.804;2023-01-28T13:39:28;6.10;99.90
28608;DHT22;15802;45.654;13.804;2023-01-28T13:42:10;6.10;99.90
28608;DHT22;15802;45.654;13.804;2023-01-28T13:45:07;6.10;99.90
28608;DHT22;15802;45.654;13.804;2023-01-28T13:47:38;6.20;99.90
28608;DHT22;15802;45.654;13.804;2023-01-28T13:50:11;6.10;99.90
28608;DHT22;15802;45.654;13.804;2023-01-28T13:52:58;6.10;99.90
28608;DHT22;15802;45.654;13.804;2023-01-28T13:55:30;6.10;99.90
28608;DHT22;15802;45.654;13.804;2023-01-28T14:04:35;6.20;99.90
28608;DHT22;15802;45.654;13.804;2023-01-28T14:10:17;6.30;99.90
28608;DHT22;15802;45.654;13.804;2023-01-28T14:13:03;6.20;99.90
28608;DHT22;15802;45.654;13.804;2023-01-28T14:15:49;6.00;99.90
28608;DHT22;15802;45.654;13.804;2023-01-28T14:18:30;5.90;99.90
28608;DHT22;15802;45.654;13.804;2023-01-28T14:21:01;5.90;99.90
28608;DHT22;15802;45.654;13.804;2023-01-28T14:23:28;5.90;99.90
28608;DHT22;15802;45.654;13.804;2023-01-28T14:26:09;5.90;99.90
28608;DHT22;15802;45.654;13.804;2023-01-28T14:28:55;5.90;99.90
28608;DHT22;15802;45.654;13.804;2023-01-28T14:31:32;5.90;99.90
28608;DHT22;15802;45.654;13.804;2023-01-28T14:36:52;5.60;99.90
28608;DHT22;15802;45.654;13.804;2023-01-28T14:39:26;5.60;99.90
28608;DHT22;15802;45.654;13.804;2023-01-28T14:41:53;5.60;99.90
28608;DHT22;15802;45.654;13.804;2023-01-28T14:44:32;5.60;99.90
28608;DHT22;15802;45.654;13.804;2023-01-28T14:47:24;5.60;99.90
28608;DHT22;15802;45.654;13.804;2023-01-28T14:56:45;5.50;99.90
28608;DHT22;15802;45.654;13.804;2023-01-28T14:59:19;5.50;99.90
28608;DHT22;15802;45.654;13.804;2023-01-28T15:01:48;5.40;99.90
28608;DHT22;15802;45.654;13.804;2023-01-28T15:04:26;5.40;99.90
28608;DHT22;15802;45.654;13.804;2023-01-28T15:06:52;5.40;99.90
28608;DHT22;15802;45.654;13.804;2023-01-28T15:09:24;5.40;99.90
28608;DHT22;15802;45.654;13.804;2023-01-28T15:11:54;5.30;99.90
28608;DHT22;15802;45.654;13.804;2023-01-28T15:14:27;5.30;99.90
28608;DHT22;15802;45.654;13.804;2023-01-28T15:16:53;5.30;99.90
28608;DHT22;15802;45.654;13.804;2023-01-28T15:19:29;5.30;99.90
28608;DHT22;15802;45.654;13.804;2023-01-28T15:22:00;5.40;99.90
28608;DHT22;15802;45.654;13.804;2023-01-28T15:24:27;5.40;99.90
28608;DHT22;15802;45.654;13.804;2023-01-28T15:26:56;5.40;99.90
28608;DHT22;15802;45.654;13.804;2023-01-28T15:29:24;5.40;99.90
28608;DHT22;15802;45.654;13.804;2023-01-28T15:31:51;5.40;99.90
28608;DHT22;15802;45.654;13.804;2023-01-28T15:34:19;5.50;99.90
28608;DHT22;15802;45.654;13.804;2023-01-28T15:36:49;5.40;99.90
28608;DHT22;15802;45.654;13.804;2023-01-28T15:39:17;5.40;99.90
28608;DHT22;15802;45.654;13.804;2023-01-28T15:41:48;5.30;99.90
28608;DHT22;15802;45.654;13.804;2023-01-28T15:44:18;5.20;99.90
28608;DHT22;15802;45.654;13.804;2023-01-28T15:46:45;5.20;99.90
28608;DHT22;15802;45.654;13.804;2023-01-28T15:49:14;5.20;99.90
28608;DHT22;15802;45.654;13.804;2023-01-28T15:51:47;5.20;99.90
28608;DHT22;15802;45.654;13.804;2023-01-28T15:54:15;5.20;99.90
28608;DHT22;15802;45.654;13.804;2023-01-28T15:56:41;5.10;99.90
28608;DHT22;15802;45.654;13.804;2023-01-28T15:59:18;5.00;99.90
28608;DHT22;15802;45.654;13.804;2023-01-28T16:01:45;5.10;99.90
28608;DHT22;15802;45.654;13.804;2023-01-28T16:04:28;5.10;99.90
28608;DHT22;15802;45.654;13.804;2023-01-28T16:06:56;5.10;99.90
28608;DHT22;15802;45.654;13.804;2023-01-28T16:09:27;5.10;99.90
28608;DHT22;15802;45.654;13.804;2023-01-28T16:12:02;5.20;99.90
28608;DHT22;15802;45.654;13.804;2023-01-28T16:14:36;5.10;99.90
28608;DHT22;15802;45.654;13.804;2023-01-28T16:17:05;5.10;99.90
28608;DHT22;15802;45.654;13.804;2023-01-28T16:19:38;5.10;99.90
28608;DHT22;15802;45.654;13.804;2023-01-28T16:22:06;5.00;99.90
28608;DHT22;15802;45.654;13.804;2023-01-28T16:24:33;4.90;99.90
28608;DHT22;15802;45.654;13.804;2023-01-28T16:27:04;4.90;99.90
28608;DHT22;15802;45.654;13.804;2023-01-28T16:29:31;4.80;99.90
28608;DHT22;15802;45.654;13.804;2023-01-28T16:31:58;4.80;99.90
28608;DHT22;15802;45.654;13.804;2023-01-28T16:34:25;4.80;99.90
28608;DHT22;15802;45.654;13.804;2023-01-28T16:36:57;4.70;99.90
28608;DHT22;15802;45.654;13.804;2023-01-28T16:39:23;4.70;99.90
28608;DHT22;15802;45.654;13.804;2023-01-28T16:44:20;4.70;99.90
28608;DHT22;15802;45.654;13.804;2023-01-28T16:46:46;4.80;99.90
28608;DHT22;15802;45.654;13.804;2023-01-28T16:49:12;4.80;99.90
28608;DHT22;15802;45.654;13.804;2023-01-28T16:51:40;4.70;99.90